Sacramento, CA (94256)

1:06 PM PDT on October 21, 2014 (GMT -0700)
MIDTOWN | Change Station
CLOSE
Current Station
Personal Weather Station
Location: SACRAMENTO, CA
Elevation: 24 ft
Nearby Weather Stations

Elev 24 ft 38.57 °N, 121.48 °W | Updated 24 seconds ago

Clear
Clear
67.6 °F
Feels Like 67.6 °F
N
1.8
Wind Variable Wind from North
Gusts 2.5 mph

Today
High -- | Low -- °F
--% Chance of Precip.
Yesterday
High -- | Low -- °F
Precip. -- in
7:21 AM 6:19 PM
Waning Crescent, 4% visible
Pressure 30.06 in
Visibility 10.0 miles
Clouds Clear
Dew Point 42 °F
Humidity 39%
Rainfall 0.00 in
Snow Depth Not available.
UV 1.0 out of 12
Pollen 3.70 out of 12
Ozone Good
PM2.5 Good
Flu Activity Sporadic
METAR KSAC 211953Z 30009KT 10SM CLR 21/08 A3006 RMK AO2 SLP179 T02060078

More Conditions Fewer Conditions

Pressure 30.06 in
Visibility 10.0 miles
Clouds Clear
Dew Point 42 °F
Humidity 39%
Rainfall 0.00 in
Snow Depth Not available.
UV 1.0 out of 12
Pollen 3.70 out of 12
Ozone Good
PM2.5 Good
Flu Activity Sporadic
METAR KSAC 211953Z 30009KT 10SM CLR 21/08 A3006 RMK AO2 SLP179 T02060078

More Conditions Fewer Conditions

10-Day Weather Forecast

Almanac

Astronomy

Oct. 21, 2014 Rise Set
Actual Time 7:21 AM PDT 6:19 PM PDT
Civil Twilight 6:54 AM PDT 6:46 PM PDT
Nautical Twilight 6:23 AM PDT 7:17 PM PDT
Astronomical Twilight 5:52 AM PDT 7:47 PM PDT
Moon 5:11 AM PDT 5:14 PM PDT
Length of Visible Light 11h 52m
Length of Day
10h 58m
Tomorrow will be 2m 22s shorter.
Waning Crescent, 4% of the Moon is Illuminated
Today
Waning Crescent
Oct 23
New
Oct 30
First Quarter
Nov 6
Full
Nov 14
Last Quarter

Today's Extremes

State Highs State Lows

Community

WunderPhotos

Upload Photos

1,763,757 photos uploaded!

Nearby

Air Quality

  Air Quality AQ Index Pollutant
Yesterday Good
OZONE
Yesterday Good
PM10
Current Good
PM2.5
Current Good
OZONE
Tuesday Good
OZONE
Wednesday Good
OZONE
Thursday Good
OZONE
Friday Good
OZONE
Saturday Good
OZONE
Sunday Good
OZONE

Snow Depth

Station Depth Elevation
Ward Creek #3 1 in 6750 ft
Rubicon #2 1 in 7500 ft
Echo Peak 0 in 7800 ft
Tahoe City Cross 0 in 6750 ft
Blue Lakes 0 in 8000 ft

Earthquake Activity

City Distance Mag. Time & Date
East Foothills, California 84 miles 2.6 8:16 AM PDT
2014-10-18
Minimum magnitude displayed is 2.5.

Coastal Water Temperatures

Place Temperature
No Stations Reporting

Nearby Weather Stations